createdAt,value
2022-08-07T00:00:44.897Z,0.60
2022-08-07T00:03:40.194Z,0.63
2022-08-07T00:06:51.130Z,0.63
2022-08-07T00:09:59.213Z,0.50
2022-08-07T00:12:57.796Z,0.70
2022-08-07T00:15:51.283Z,0.50
2022-08-07T00:18:39.849Z,0.60
2022-08-07T00:21:56.195Z,0.60
2022-08-07T00:24:38.602Z,0.50
2022-08-07T00:27:27.757Z,0.67
2022-08-07T00:30:36.888Z,0.77
2022-08-07T00:33:28.265Z,0.70
2022-08-07T00:36:16.818Z,0.60
2022-08-07T00:39:05.199Z,0.60
2022-08-07T00:42:02.293Z,0.83
2022-08-07T00:44:54.272Z,0.67
2022-08-07T00:48:09.740Z,0.70
2022-08-07T00:50:53.902Z,0.60
2022-08-07T00:53:50.260Z,0.90
2022-08-07T00:56:38.904Z,0.53
2022-08-07T00:59:35.553Z,0.87
2022-08-07T01:02:28.903Z,0.60
2022-08-07T01:05:20.905Z,0.67
2022-08-07T01:08:12.765Z,1.33
2022-08-07T01:11:23.656Z,0.80
2022-08-07T01:14:09.501Z,0.60
2022-08-07T01:16:57.886Z,0.67
2022-08-07T01:19:54.390Z,0.60
2022-08-07T01:22:58.450Z,0.80
2022-08-07T01:25:56.181Z,0.73
2022-08-07T01:28:45.884Z,0.60
2022-08-07T01:31:42.499Z,0.70
2022-08-07T01:34:34.746Z,0.93
2022-08-07T01:37:22.744Z,1.00
2022-08-07T01:40:15.577Z,1.00
2022-08-07T01:43:04.002Z,0.87
2022-08-07T01:45:54.470Z,0.97
2022-08-07T01:48:46.762Z,0.87
2022-08-07T01:52:01.600Z,0.83
2022-08-07T01:54:47.008Z,0.90
2022-08-07T01:58:01.593Z,1.00
2022-08-07T02:00:51.390Z,0.80
2022-08-07T02:03:57.429Z,0.90
2022-08-07T02:06:46.348Z,0.90
2022-08-07T02:09:53.123Z,0.90
2022-08-07T02:12:50.308Z,1.10
2022-08-07T02:15:41.010Z,1.00
2022-08-07T02:18:31.890Z,0.90
2022-08-07T02:21:20.781Z,0.90
2022-08-07T02:24:09.711Z,1.00
2022-08-07T02:27:00.105Z,0.97
2022-08-07T02:29:54.100Z,0.93
2022-08-07T02:33:08.902Z,0.90
2022-08-07T02:36:28.205Z,0.90
2022-08-07T02:39:16.451Z,1.00
2022-08-07T02:42:10.077Z,0.90
2022-08-07T02:45:57.707Z,0.77
2022-08-07T02:48:15.538Z,0.90
2022-08-07T02:51:14.197Z,1.03
2022-08-07T02:54:17.656Z,1.00
2022-08-07T02:57:06.802Z,1.20
2022-08-07T03:00:01.148Z,1.00
2022-08-07T03:02:55.537Z,1.13
2022-08-07T03:05:45.383Z,0.93
2022-08-07T03:08:34.418Z,1.07
2022-08-07T03:11:25.302Z,1.30
2022-08-07T03:14:16.704Z,0.90
2022-08-07T03:17:08.807Z,1.20
2022-08-07T03:19:58.324Z,0.93
2022-08-07T03:22:50.191Z,1.27
2022-08-07T03:25:41.946Z,0.97
2022-08-07T03:28:38.258Z,0.97
2022-08-07T03:31:42.430Z,1.00
2022-08-07T03:34:34.011Z,1.10
2022-08-07T03:37:32.497Z,0.97
2022-08-07T03:40:22.302Z,1.20
2022-08-07T03:43:14.549Z,0.90
2022-08-07T03:46:04.114Z,1.10
2022-08-07T03:49:02.394Z,1.00
2022-08-07T03:51:57.347Z,1.20
2022-08-07T03:54:54.063Z,0.90
2022-08-07T03:58:35.082Z,0.90
2022-08-07T04:00:58.243Z,0.97
2022-08-07T04:03:53.421Z,1.10
2022-08-07T04:06:44.162Z,0.90
2022-08-07T04:09:45.405Z,0.87
2022-08-07T04:12:39.912Z,1.10
2022-08-07T04:15:28.781Z,1.17
2022-08-07T04:18:59.890Z,1.00
2022-08-07T04:21:25.580Z,1.00
2022-08-07T04:24:30.326Z,1.10
2022-08-07T04:30:35.817Z,1.00
2022-08-07T04:33:26.587Z,1.10
2022-08-07T04:36:15.753Z,0.97
2022-08-07T04:39:11.199Z,1.00
2022-08-07T04:42:03.310Z,0.87
2022-08-07T04:44:54.382Z,0.90
2022-08-07T04:48:10.731Z,1.27
2022-08-07T04:51:06.461Z,1.20
2022-08-07T04:54:06.067Z,0.90
2022-08-07T04:58:09.383Z,1.30
2022-08-07T05:00:30.167Z,1.00
2022-08-07T05:04:00.957Z,1.10
2022-08-07T05:06:43.330Z,1.10
2022-08-07T05:09:45.293Z,0.97
2022-08-07T05:12:46.321Z,0.90
2022-08-07T05:15:48.367Z,0.97
2022-08-07T05:18:47.222Z,0.87
2022-08-07T05:22:00.134Z,1.10
2022-08-07T05:24:47.009Z,1.00
2022-08-07T05:28:23.021Z,1.00
2022-08-07T05:31:14.662Z,1.00
2022-08-07T05:34:13.208Z,1.50
2022-08-07T05:37:05.910Z,1.20
2022-08-07T05:40:13.746Z,1.10
2022-08-07T05:43:04.604Z,1.30
2022-08-07T05:46:01.362Z,1.03
2022-08-07T05:48:58.574Z,1.20
2022-08-07T05:51:49.299Z,1.13
2022-08-07T05:54:53.717Z,1.00
2022-08-07T05:57:47.930Z,1.20
2022-08-07T06:00:40.203Z,1.10
2022-08-07T06:03:53.908Z,1.00
2022-08-07T06:06:38.359Z,0.97
2022-08-07T06:10:03.721Z,1.30
2022-08-07T06:12:44.596Z,1.00
2022-08-07T06:15:39.015Z,1.10
2022-08-07T06:18:31.282Z,1.13
2022-08-07T06:22:14.760Z,1.03
2022-08-07T06:24:46.080Z,1.13
2022-08-07T06:27:43.990Z,1.10
2022-08-07T06:30:46.197Z,1.20
2022-08-07T06:33:41.019Z,1.13
2022-08-07T06:36:35.412Z,0.77
2022-08-07T06:40:16.631Z,0.80
2022-08-07T06:42:37.637Z,0.80
2022-08-07T06:45:28.510Z,0.70
2022-08-07T06:48:24.944Z,0.70
2022-08-07T06:51:24.577Z,0.70
2022-08-07T06:55:32.930Z,0.90
2022-08-07T06:57:43.460Z,0.70
2022-08-07T07:00:42.436Z,0.60
2022-08-07T07:03:47.632Z,0.70
2022-08-07T07:06:57.204Z,0.87
2022-08-07T07:09:46.923Z,0.80
2022-08-07T07:12:41.681Z,1.00
2022-08-07T07:15:51.669Z,0.80
2022-08-07T07:18:48.341Z,0.73
2022-08-07T07:22:11.738Z,0.87
2022-08-07T07:25:02.329Z,0.77
2022-08-07T07:28:02.145Z,0.90
2022-08-07T07:31:03.326Z,0.80
2022-08-07T07:33:57.365Z,0.87
2022-08-07T07:36:52.709Z,0.50
2022-08-07T07:39:52.086Z,0.77
2022-08-07T07:42:47.197Z,0.50
2022-08-07T07:46:39.873Z,0.50
2022-08-07T07:49:00.243Z,0.50
2022-08-07T07:52:03.570Z,0.77
2022-08-07T07:54:57.819Z,0.70
2022-08-07T07:57:52.844Z,0.53
2022-08-07T08:00:45.736Z,0.60
2022-08-07T08:04:10.573Z,0.50
2022-08-07T08:06:54.582Z,0.60
2022-08-07T08:09:52.303Z,0.50
2022-08-07T08:12:59.859Z,0.30
2022-08-07T08:15:58.133Z,0.50
2022-08-07T08:18:54.827Z,0.50
2022-08-07T08:22:08.072Z,0.50
2022-08-07T08:25:41.892Z,0.47
2022-08-07T08:28:37.602Z,0.40
2022-08-07T08:32:17.304Z,0.70
2022-08-07T08:34:48.252Z,0.60
2022-08-07T08:44:48.288Z,0.50
2022-08-07T08:47:52.562Z,0.37
2022-08-07T08:50:49.341Z,0.83
2022-08-07T08:53:53.424Z,0.60
2022-08-07T08:56:48.608Z,0.43
2022-08-07T08:59:48.377Z,0.50
2022-08-07T09:03:13.139Z,0.40
2022-08-07T09:06:12.127Z,0.60
2022-08-07T09:09:09.692Z,0.47
2022-08-07T09:12:30.762Z,0.50
2022-08-07T09:16:23.001Z,0.40
2022-08-07T09:19:51.218Z,0.60
2022-08-07T09:24:31.603Z,0.60
2022-08-07T09:26:20.922Z,0.50
2022-08-07T09:30:03.416Z,0.50
2022-08-07T09:33:05.519Z,0.40
2022-08-07T09:36:37.257Z,0.50
2022-08-07T09:39:54.017Z,0.40
2022-08-07T09:42:54.180Z,0.60
2022-08-07T09:47:24.822Z,0.47
2022-08-07T09:50:02.069Z,0.40
2022-08-07T09:52:42.139Z,0.30
2022-08-07T09:56:04.512Z,0.60
2022-08-07T09:59:14.500Z,0.40
2022-08-07T10:02:20.276Z,0.40
2022-08-07T10:05:59.436Z,0.53
2022-08-07T10:08:59.702Z,0.40
2022-08-07T10:12:40.618Z,0.40
2022-08-07T10:15:57.512Z,0.33
2022-08-07T10:19:11.340Z,0.50
2022-08-07T10:22:24.968Z,0.40
2022-08-07T10:26:31.454Z,0.60
2022-08-07T10:29:43.192Z,0.40
2022-08-07T10:33:06.878Z,0.60
2022-08-07T10:36:17.684Z,0.50
2022-08-07T10:39:41.959Z,0.63
2022-08-07T10:42:59.718Z,0.50
2022-08-07T10:45:58.303Z,0.60
2022-08-07T10:48:58.803Z,0.50
2022-08-07T10:52:01.573Z,0.43
2022-08-07T10:55:26.581Z,0.50
2022-08-07T10:58:40.180Z,0.50
2022-08-07T11:01:51.999Z,0.43
2022-08-07T11:05:10.233Z,0.43
2022-08-07T11:08:09.401Z,0.80
2022-08-07T11:11:07.258Z,0.60
2022-08-07T11:14:57.079Z,0.40
2022-08-07T11:17:23.189Z,0.60
2022-08-07T11:20:32.571Z,0.67
2022-08-07T11:23:30.645Z,0.70
2022-08-07T11:29:42.613Z,0.40
2022-08-07T11:32:40.548Z,0.40
2022-08-07T11:35:33.599Z,0.40
2022-08-07T11:38:31.332Z,0.50
2022-08-07T11:42:00.380Z,0.27
2022-08-07T11:44:51.957Z,0.43
2022-08-07T11:48:03.378Z,0.30
2022-08-07T11:51:10.687Z,0.60
2022-08-07T11:54:37.568Z,0.50
2022-08-07T11:57:59.860Z,0.63
2022-08-07T12:01:05.082Z,0.70
2022-08-07T12:04:32.865Z,0.63
2022-08-07T12:07:27.255Z,0.80
2022-08-07T12:10:23.256Z,0.50
2022-08-07T12:13:37.085Z,0.50
2022-08-07T12:16:31.114Z,0.70
2022-08-07T12:19:35.336Z,0.40
2022-08-07T12:22:56.185Z,0.57
2022-08-07T12:26:21.418Z,0.40
2022-08-07T12:29:08.745Z,0.50
2022-08-07T12:32:04.777Z,0.87
2022-08-07T12:34:56.533Z,0.60
2022-08-07T12:38:10.616Z,0.50
2022-08-07T12:41:03.789Z,0.60
2022-08-07T12:44:04.621Z,0.47
2022-08-07T12:47:09.343Z,0.50
2022-08-07T12:50:39.213Z,0.40
2022-08-07T12:53:21.946Z,0.50
2022-08-07T12:56:20.837Z,0.60
2022-08-07T12:59:20.722Z,0.50
2022-08-07T13:02:32.997Z,0.50
2022-08-07T13:06:02.690Z,0.50
2022-08-07T13:09:01.690Z,0.60
2022-08-07T13:12:13.406Z,0.70
2022-08-07T13:15:23.637Z,0.40
2022-08-07T13:18:31.827Z,0.60
2022-08-07T13:21:37.196Z,0.50
2022-08-07T13:24:43.920Z,0.75
2022-08-07T13:28:10.646Z,0.60
2022-08-07T13:31:06.413Z,0.60
2022-08-07T13:34:33.614Z,0.57
2022-08-07T13:37:30.089Z,0.60
2022-08-07T13:40:35.530Z,0.57
2022-08-07T13:43:34.407Z,0.50
2022-08-07T13:46:28.808Z,0.65
2022-08-07T13:50:35.196Z,0.43
2022-08-07T13:52:38.051Z,0.50
2022-08-07T13:55:30.978Z,0.88
2022-08-07T13:58:50.440Z,0.50
2022-08-07T14:01:59.423Z,0.85
2022-08-07T14:04:56.116Z,0.60
2022-08-07T14:07:59.611Z,0.60
2022-08-07T14:11:14.677Z,0.60
2022-08-07T14:14:09.093Z,0.50
2022-08-07T14:16:59.935Z,0.50
2022-08-07T14:20:42.588Z,0.80
2022-08-07T14:23:31.380Z,0.70
2022-08-07T14:26:34.392Z,0.82
2022-08-07T14:30:05.164Z,0.50
2022-08-07T14:32:45.558Z,0.70
2022-08-07T14:35:43.259Z,0.70
2022-08-07T14:38:37.151Z,0.70
2022-08-07T14:41:33.808Z,0.73
2022-08-07T14:44:39.036Z,0.52
2022-08-07T14:47:32.409Z,0.50
2022-08-07T14:50:24.475Z,0.60
2022-08-07T14:56:29.826Z,0.52
2022-08-07T15:00:06.126Z,0.50
2022-08-07T15:02:34.921Z,0.70
2022-08-07T15:05:27.219Z,0.43
2022-08-07T15:08:32.361Z,0.60
2022-08-07T15:14:34.991Z,0.70
2022-08-07T15:17:55.388Z,0.60
2022-08-07T15:20:55.154Z,0.70
2022-08-07T15:25:12.960Z,0.68
2022-08-07T15:27:05.113Z,0.57
2022-08-07T15:30:16.900Z,0.60
2022-08-07T15:39:27.520Z,0.77
2022-08-07T15:42:54.894Z,0.57
2022-08-07T15:45:55.834Z,0.50
2022-08-07T15:49:03.490Z,0.60
2022-08-07T15:54:53.468Z,0.60
2022-08-07T15:57:52.611Z,0.60
2022-08-07T16:00:51.034Z,0.60
2022-08-07T16:03:47.289Z,0.55
2022-08-07T16:06:38.245Z,0.60
2022-08-07T16:09:42.211Z,0.50
2022-08-07T16:12:41.076Z,0.60
2022-08-07T16:19:04.284Z,0.47
2022-08-07T16:22:17.937Z,0.35
2022-08-07T16:25:54.449Z,0.60
2022-08-07T16:30:09.587Z,0.63
2022-08-07T16:34:02.757Z,0.70
2022-08-07T16:37:02.979Z,0.57
2022-08-07T16:44:55.374Z,0.60
2022-08-07T16:48:15.917Z,0.60
2022-08-07T16:51:54.289Z,0.70
2022-08-07T16:55:47.184Z,0.50
2022-08-07T16:59:14.429Z,0.60
2022-08-07T17:02:09.500Z,0.60
2022-08-07T17:06:19.789Z,0.73
2022-08-07T17:09:09.746Z,0.52
2022-08-07T17:12:35.139Z,0.50
2022-08-07T17:15:44.477Z,0.68
2022-08-07T17:18:46.097Z,0.40
2022-08-07T17:21:50.758Z,0.77
2022-08-07T17:25:05.004Z,0.77
2022-08-07T17:28:01.669Z,0.88
2022-08-07T17:31:15.759Z,0.80
2022-08-07T17:34:34.044Z,0.60
2022-08-07T17:38:09.723Z,1.00
2022-08-07T17:40:50.494Z,0.57
2022-08-07T17:44:02.169Z,0.65
2022-08-07T17:47:00.872Z,0.52
2022-08-07T17:49:55.534Z,0.73
2022-08-07T17:52:52.320Z,0.52
2022-08-07T17:55:54.787Z,0.70
2022-08-07T17:59:00.612Z,0.60
2022-08-07T18:01:59.965Z,0.60
2022-08-07T18:04:53.048Z,0.60
2022-08-07T18:07:44.043Z,0.68
2022-08-07T18:12:07.257Z,0.60
2022-08-07T18:13:54.683Z,0.40
2022-08-07T18:16:57.899Z,0.60
2022-08-07T18:21:07.605Z,0.50
2022-08-07T18:23:42.585Z,0.50
2022-08-07T18:26:26.454Z,0.40
2022-08-07T18:30:08.389Z,0.40
2022-08-07T18:32:52.747Z,0.50
2022-08-07T18:35:55.644Z,0.63
2022-08-07T18:40:08.359Z,0.40
2022-08-07T18:42:22.238Z,0.65
2022-08-07T18:45:42.966Z,0.50
2022-08-07T18:50:19.275Z,0.90
2022-08-07T18:52:34.781Z,0.70
2022-08-07T18:55:42.541Z,0.80
2022-08-07T18:58:40.477Z,0.57
2022-08-07T19:02:34.107Z,0.57
2022-08-07T19:05:10.800Z,0.50
2022-08-07T19:08:11.365Z,0.50
2022-08-07T19:11:35.169Z,0.57
2022-08-07T19:14:36.803Z,0.60
2022-08-07T19:18:01.512Z,0.63
2022-08-07T19:21:08.384Z,0.50
2022-08-07T19:24:06.248Z,0.80
2022-08-07T19:28:30.700Z,0.53
2022-08-07T19:31:00.840Z,0.50
2022-08-07T19:33:34.643Z,0.70
2022-08-07T19:36:27.747Z,0.50
2022-08-07T19:39:40.361Z,0.80
2022-08-07T19:42:39.889Z,0.60
2022-08-07T19:46:06.079Z,0.83
2022-08-07T19:48:53.529Z,0.60
2022-08-07T19:51:50.891Z,0.67
2022-08-07T19:54:56.462Z,0.50
2022-08-07T19:58:02.037Z,0.70
2022-08-07T20:00:55.535Z,0.67
2022-08-07T20:03:44.390Z,0.60
2022-08-07T20:06:32.528Z,0.60
2022-08-07T20:10:35.817Z,0.70
2022-08-07T20:12:35.722Z,0.50
2022-08-07T20:15:33.097Z,0.80
2022-08-07T20:18:33.766Z,0.70
2022-08-07T20:21:24.991Z,0.50
2022-08-07T20:24:20.753Z,0.50
2022-08-07T20:27:11.715Z,0.73
2022-08-07T20:30:07.641Z,0.60
2022-08-07T20:33:01.071Z,0.50
2022-08-07T20:36:01.396Z,0.63
2022-08-07T20:39:00.703Z,0.50
2022-08-07T20:41:55.717Z,0.60
2022-08-07T20:44:49.595Z,0.60
2022-08-07T20:47:56.530Z,0.70
2022-08-07T20:50:47.097Z,0.60
2022-08-07T20:54:04.653Z,0.73
2022-08-07T20:56:51.663Z,0.60
2022-08-07T21:00:06.500Z,1.50
2022-08-07T21:03:01.910Z,0.77
2022-08-07T21:05:56.149Z,1.00
2022-08-07T21:08:48.128Z,0.80
2022-08-07T21:11:49.977Z,0.70
2022-08-07T21:14:48.360Z,0.87
2022-08-07T21:18:02.842Z,0.87
2022-08-07T21:20:59.381Z,0.80
2022-08-07T21:23:56.179Z,0.80
2022-08-07T21:26:57.590Z,0.70
2022-08-07T21:29:52.991Z,0.70
2022-08-07T21:32:51.989Z,0.60
2022-08-07T21:36:04.109Z,0.90
2022-08-07T21:39:46.854Z,0.97
2022-08-07T21:42:42.637Z,1.00
2022-08-07T21:46:07.868Z,0.70
2022-08-07T21:48:55.921Z,0.80
2022-08-07T21:52:11.364Z,1.00
2022-08-07T21:55:07.095Z,0.90
2022-08-07T21:58:07.556Z,0.70
2022-08-07T22:01:02.021Z,0.63
2022-08-07T22:04:00.645Z,0.73
2022-08-07T22:07:06.530Z,0.90
2022-08-07T22:09:58.743Z,0.97
2022-08-07T22:12:55.415Z,1.23
2022-08-07T22:16:39.927Z,1.00
2022-08-07T22:19:18.101Z,0.80
2022-08-07T22:22:20.849Z,0.83
2022-08-07T22:25:17.134Z,0.90
2022-08-07T22:28:31.073Z,0.93
2022-08-07T22:31:58.916Z,0.80
2022-08-07T22:34:49.732Z,0.60
2022-08-07T22:38:03.553Z,0.83
2022-08-07T22:40:59.847Z,0.97
2022-08-07T22:43:58.919Z,0.90
2022-08-07T22:47:23.398Z,1.03
2022-08-07T22:50:37.042Z,1.10
2022-08-07T22:54:06.976Z,1.00
2022-08-07T22:56:59.174Z,0.70
2022-08-07T22:59:55.414Z,1.00
2022-08-07T23:03:09.342Z,1.00
2022-08-07T23:06:16.828Z,1.10
2022-08-07T23:10:05.147Z,0.90
2022-08-07T23:12:54.608Z,0.83
2022-08-07T23:16:06.591Z,0.90
2022-08-07T23:19:48.053Z,1.10
2022-08-07T23:22:52.254Z,0.97
2022-08-07T23:26:01.039Z,0.80
2022-08-07T23:29:42.814Z,1.17
2022-08-07T23:34:23.956Z,0.80
2022-08-07T23:35:47.985Z,1.40
2022-08-07T23:39:00.207Z,1.03
2022-08-07T23:42:06.222Z,1.07
2022-08-07T23:45:07.827Z,1.23
2022-08-07T23:48:44.479Z,1.10
2022-08-07T23:52:59.825Z,1.30
2022-08-07T23:54:56.965Z,1.13
2022-08-07T23:57:54.248Z,1.20
